Time;durP1;ratioP1;P1;durP2;ratioP2;P2;SDS_P1;SDS_P2;PMS_P1;PMS_P2;Temp;Humidity;BMP_temperature;BMP_pressure;BME280_temperature;BME280_humidity;BME280_pressure;Samples;Min_cycle;Max_cycle;Signal;HPM_P1;HPM_P2
2022/07/14 00:00:46;;;;;;;9.57;2.42;;;;;;;17.90;54.79;101834.78;7387778;19;20052;-64
2022/07/14 00:03:13;;;;;;;8.38;2.00;;;;;;;17.81;54.95;101832.25;7387423;19;20026;-65
2022/07/14 00:05:41;;;;;;;6.22;2.00;;;;;;;17.64;55.11;101836.28;7385949;19;20014;-64
2022/07/14 00:08:09;;;;;;;7.18;1.80;;;;;;;17.63;55.09;101843.03;7384696;19;20019;-64
2022/07/14 00:10:36;;;;;;;15.18;4.20;;;;;;;17.66;55.00;101849.09;7388683;19;20014;-64
2022/07/14 00:13:04;;;;;;;10.77;3.03;;;;;;;17.65;55.17;101839.88;7385239;19;20439;-64
2022/07/14 00:15:31;;;;;;;7.85;1.92;;;;;;;17.62;55.14;101835.84;7384550;19;20013;-64
2022/07/14 00:18:00;;;;;;;6.00;1.60;;;;;;;17.58;54.92;101846.13;7387712;19;20015;-64
2022/07/14 00:20:27;;;;;;;6.60;3.03;;;;;;;17.54;54.99;101844.44;7384644;19;20018;-64
2022/07/14 00:22:56;;;;;;;6.07;1.95;;;;;;;17.46;55.20;101843.44;7385519;19;20022;-64
2022/07/14 00:25:26;;;;;;;4.35;2.38;;;;;;;17.44;54.94;101845.78;7384847;19;20087;-64
2022/07/14 00:27:54;;;;;;;8.85;2.45;;;;;;;17.31;55.14;101838.69;7383728;19;20022;-65
2022/07/14 00:30:22;;;;;;;4.43;1.77;;;;;;;17.25;55.41;101842.94;7385444;19;20329;-64
2022/07/14 00:32:50;;;;;;;9.93;3.15;;;;;;;17.21;55.21;101844.81;7383162;19;20018;-66
2022/07/14 00:35:19;;;;;;;12.25;2.47;;;;;;;17.15;55.61;101837.91;7384570;19;20339;-65
2022/07/14 00:37:46;;;;;;;8.70;2.60;;;;;;;17.06;56.07;101840.06;7386748;19;20399;-64
2022/07/14 00:40:14;;;;;;;8.52;2.00;;;;;;;17.11;55.66;101845.38;7386321;19;20014;-64
2022/07/14 00:42:47;;;;;;;6.05;2.13;;;;;;;17.10;55.87;101841.00;7384688;19;20602;-64
2022/07/14 00:45:18;;;;;;;4.95;1.77;;;;;;;17.10;55.76;101832.59;7384279;19;20367;-64
2022/07/14 00:47:47;;;;;;;8.52;1.65;;;;;;;17.01;55.95;101837.56;7383507;19;20010;-64
2022/07/14 00:50:17;;;;;;;6.90;1.67;;;;;;;16.99;55.86;101828.72;7386493;19;20558;-64
2022/07/14 00:52:47;;;;;;;10.98;1.75;;;;;;;17.00;56.26;101833.13;7384878;19;20480;-64
2022/07/14 00:55:15;;;;;;;9.60;2.30;;;;;;;17.02;55.79;101834.38;7382483;19;20019;-65
2022/07/14 00:57:43;;;;;;;9.27;2.15;;;;;;;17.00;55.73;101841.50;7385982;19;20010;-65
2022/07/14 01:00:14;;;;;;;8.93;2.03;;;;;;;16.93;55.65;101841.34;7385400;19;20018;-65
2022/07/14 01:02:42;;;;;;;6.03;1.88;;;;;;;16.86;56.19;101846.78;7385093;19;20018;-64
2022/07/14 01:05:10;;;;;;;9.70;2.67;;;;;;;16.83;56.16;101839.09;7381284;19;20150;-65
2022/07/14 01:07:38;;;;;;;9.98;2.63;;;;;;;16.82;56.16;101831.88;7387353;19;20011;-65
2022/07/14 01:10:06;;;;;;;12.07;3.08;;;;;;;16.74;56.32;101839.28;7386863;19;20333;-64
2022/07/14 01:12:34;;;;;;;7.03;2.00;;;;;;;16.77;56.77;101837.75;7385120;19;20032;-64
2022/07/14 01:15:03;;;;;;;11.77;1.85;;;;;;;16.77;56.63;101837.75;7382020;19;20834;-64
2022/07/14 01:17:31;;;;;;;5.28;2.92;;;;;;;16.80;56.68;101834.22;7385038;19;20021;-64
2022/07/14 01:19:59;;;;;;;6.65;1.60;;;;;;;16.82;56.87;101841.06;7386769;19;20017;-65
2022/07/14 01:22:26;;;;;;;6.05;2.30;;;;;;;16.80;56.83;101848.22;7384740;19;20023;-64
2022/07/14 01:24:55;;;;;;;4.90;1.42;;;;;;;16.72;57.04;101857.59;7382099;19;20018;-64
2022/07/14 01:27:23;;;;;;;7.43;3.45;;;;;;;16.70;57.26;101848.75;7386934;19;20014;-65
2022/07/14 01:29:50;;;;;;;9.55;2.83;;;;;;;16.71;57.22;101861.53;7384377;19;20011;-63
2022/07/14 01:32:18;;;;;;;7.45;2.20;;;;;;;16.68;57.26;101853.91;7383854;19;20017;-64
2022/07/14 01:34:46;;;;;;;10.70;2.10;;;;;;;16.75;57.41;101854.06;7382457;19;20018;-63
2022/07/14 01:37:13;;;;;;;9.40;2.20;;;;;;;16.68;57.47;101849.09;7384216;19;20011;-66
2022/07/14 01:39:43;;;;;;;9.20;3.15;;;;;;;16.62;57.68;101842.16;7383557;19;20467;-63
2022/07/14 01:42:11;;;;;;;9.55;2.67;;;;;;;16.64;57.64;101850.19;7386120;19;20014;-64
2022/07/14 01:44:40;;;;;;;14.32;3.42;;;;;;;16.60;57.72;101855.66;7382250;19;20044;-64
2022/07/14 01:47:07;;;;;;;7.88;1.80;;;;;;;16.61;57.94;101856.47;7384176;19;20026;-64
2022/07/14 01:49:36;;;;;;;10.60;2.28;;;;;;;16.57;57.79;101850.00;7384505;19;20047;-64
2022/07/14 01:52:07;;;;;;;5.70;1.95;;;;;;;16.56;57.66;101851.97;7384160;19;20011;-64
2022/07/14 01:54:37;;;;;;;9.80;2.45;;;;;;;16.54;57.63;101845.13;7383521;19;20015;-64
2022/07/14 01:57:08;;;;;;;8.27;2.90;;;;;;;16.51;57.90;101851.41;7384389;19;20484;-64
2022/07/14 01:59:36;;;;;;;7.40;1.92;;;;;;;16.48;58.03;101846.53;7384648;19;20018;-63
2022/07/14 02:02:04;;;;;;;5.25;2.00;;;;;;;16.52;57.96;101842.63;7383377;19;20021;-64
2022/07/14 02:04:32;;;;;;;7.45;1.58;;;;;;;16.47;58.34;101851.28;7381144;19;20018;-65
2022/07/14 02:06:59;;;;;;;14.55;3.92;;;;;;;16.43;58.07;101853.19;7382339;19;21381;-63
2022/07/14 02:12:33;;;;;;;7.15;2.00;;;;;;;16.28;58.44;101848.38;7387208;19;20472;-63
2022/07/14 02:15:01;;;;;;;11.10;3.60;;;;;;;16.22;58.75;101845.03;7385490;19;20535;-64
2022/07/14 02:17:30;;;;;;;3.58;1.88;;;;;;;16.28;58.60;101851.97;7390161;19;20138;-63
2022/07/14 02:19:57;;;;;;;14.90;2.20;;;;;;;16.31;58.90;101853.25;7392721;19;20014;-64
2022/07/14 02:22:25;;;;;;;10.10;2.50;;;;;;;16.33;58.96;101856.50;7388320;19;20014;-65
2022/07/14 02:24:52;;;;;;;6.57;2.00;;;;;;;16.37;58.65;101844.25;7389261;19;20015;-64
2022/07/14 02:27:20;;;;;;;8.77;2.20;;;;;;;16.35;59.02;101846.59;7389803;19;20501;-64
2022/07/14 02:29:48;;;;;;;7.10;2.25;;;;;;;16.34;59.04;101852.53;7388545;19;20045;-64
2022/07/14 02:32:15;;;;;;;11.80;3.30;;;;;;;16.36;59.03;101855.81;7385977;19;20048;-64
2022/07/14 02:34:44;;;;;;;12.10;3.30;;;;;;;16.34;59.24;101856.13;7388430;19;20341;-65
2022/07/14 02:37:12;;;;;;;9.27;2.38;;;;;;;16.30;59.21;101858.03;7389658;19;20018;-64
2022/07/14 02:39:39;;;;;;;12.98;2.40;;;;;;;16.28;59.19;101857.56;7388753;19;20513;-64
2022/07/14 02:42:07;;;;;;;3.80;1.58;;;;;;;16.24;59.32;101853.88;7390009;19;20018;-64
2022/07/14 02:44:36;;;;;;;7.85;2.65;;;;;;;16.23;59.33;101860.63;7389061;19;20011;-64
2022/07/14 02:47:04;;;;;;;5.45;1.88;;;;;;;16.23;59.28;101866.22;7389735;19;20014;-63
2022/07/14 02:49:31;;;;;;;8.57;2.53;;;;;;;16.17;59.22;101872.41;7387275;19;20489;-64
2022/07/14 02:51:59;;;;;;;5.20;1.98;;;;;;;16.08;59.75;101860.56;7389064;19;20398;-65
2022/07/14 02:54:27;;;;;;;9.70;1.88;;;;;;;16.07;59.58;101856.97;7389189;19;20026;-65
2022/07/14 02:56:55;;;;;;;16.83;2.20;;;;;;;16.00;59.73;101853.97;7387720;19;20112;-64
2022/07/14 02:59:24;;;;;;;7.90;2.13;;;;;;;15.94;59.90;101855.38;7389352;19;20022;-64
2022/07/14 03:01:52;;;;;;;6.88;2.28;;;;;;;15.93;60.17;101848.19;7388127;19;20014;-65
2022/07/14 03:04:22;;;;;;;7.80;2.40;;;;;;;15.91;60.14;101850.53;7386862;19;20025;-64
2022/07/14 03:06:53;;;;;;;5.10;1.90;;;;;;;15.87;60.36;101862.75;7389748;19;20017;-65
2022/07/14 03:09:23;;;;;;;14.38;3.22;;;;;;;15.90;60.21;101854.47;7390423;19;20029;-66
2022/07/14 03:11:52;;;;;;;7.65;2.25;;;;;;;15.86;60.44;101861.94;7387604;19;20428;-66
2022/07/14 03:14:19;;;;;;;5.05;1.65;;;;;;;15.80;60.63;101860.56;7388521;19;20607;-65
2022/07/14 03:16:47;;;;;;;12.80;2.50;;;;;;;15.78;60.69;101858.13;7387040;19;20013;-64
2022/07/14 03:19:14;;;;;;;12.20;2.15;;;;;;;15.77;60.58;101861.28;7389773;19;20488;-63
2022/07/14 03:21:44;;;;;;;15.40;3.75;;;;;;;15.78;60.15;101860.09;7389040;19;20048;-63
2022/07/14 03:24:14;;;;;;;11.35;2.15;;;;;;;15.75;60.47;101858.03;7388259;19;20019;-63
2022/07/14 03:26:41;;;;;;;7.93;1.60;;;;;;;15.69;60.54;101865.00;7388897;19;20479;-64
2022/07/14 03:29:10;;;;;;;6.93;1.65;;;;;;;15.62;60.45;101856.44;7390608;19;20029;-64
2022/07/14 03:31:38;;;;;;;10.23;1.65;;;;;;;15.56;60.71;101863.41;7388355;19;20019;-64
2022/07/14 03:34:10;;;;;;;5.57;2.30;;;;;;;15.58;61.02;101864.69;7387971;19;20583;-65
2022/07/14 03:36:38;;;;;;;8.23;1.70;;;;;;;15.59;60.76;101866.31;7386472;19;20022;-63
2022/07/14 03:39:18;;;;;;;6.22;2.10;;;;;;;15.57;61.06;101860.25;7386236;19;20023;-64
2022/07/14 03:41:46;;;;;;;10.15;1.85;;;;;;;15.59;61.00;101859.91;7386779;19;20033;-65
2022/07/14 03:44:14;;;;;;;10.93;2.33;;;;;;;15.52;61.09;101862.47;7386045;19;20006;-64
2022/07/14 03:46:41;;;;;;;8.93;3.38;;;;;;;15.44;61.27;101867.00;7385889;19;20025;-65
2022/07/14 03:49:15;;;;;;;10.93;2.25;;;;;;;15.45;61.80;101862.22;7385149;19;20023;-64
2022/07/14 03:51:44;;;;;;;6.47;2.03;;;;;;;15.49;61.63;101855.63;7386471;19;20014;-65
2022/07/14 03:54:16;;;;;;;5.85;2.53;;;;;;;15.43;61.62;101862.59;7386886;19;20034;-64
2022/07/14 03:56:43;;;;;;;8.95;2.63;;;;;;;15.40;61.74;101856.91;7385465;19;20025;-64
2022/07/14 03:59:11;;;;;;;8.77;2.15;;;;;;;15.44;62.17;101857.81;7387012;19;20019;-64
2022/07/14 04:01:39;;;;;;;9.18;3.13;;;;;;;15.40;62.29;101859.69;7386392;19;20078;-64
2022/07/14 04:04:07;;;;;;;13.40;2.70;;;;;;;15.42;62.15;101863.75;7387302;19;20415;-63
2022/07/14 04:06:35;;;;;;;9.60;2.58;;;;;;;15.42;62.51;101866.53;7385770;19;20056;-66
2022/07/14 04:09:03;;;;;;;7.43;1.98;;;;;;;15.45;62.09;101873.41;7386733;19;20014;-64
2022/07/14 04:11:35;;;;;;;11.20;3.03;;;;;;;15.45;62.30;101876.19;7385459;19;20464;-65
2022/07/14 04:14:04;;;;;;;7.20;1.80;;;;;;;15.46;62.57;101877.84;7385791;19;20018;-64
2022/07/14 04:16:31;;;;;;;10.60;2.25;;;;;;;15.47;62.30;101879.47;7384471;19;20025;-64
2022/07/14 04:19:00;;;;;;;10.23;3.53;;;;;;;15.40;63.04;101873.63;7384309;19;20078;-64
2022/07/14 04:21:28;;;;;;;12.45;2.42;;;;;;;15.36;63.14;101873.50;7385289;19;20471;-65
2022/07/14 04:23:55;;;;;;;10.60;2.25;;;;;;;15.36;63.23;101872.69;7385490;19;20018;-64
2022/07/14 04:26:28;;;;;;;13.75;2.20;;;;;;;15.34;62.96;101880.59;7384306;19;20050;-64
2022/07/14 04:28:57;;;;;;;9.15;2.22;;;;;;;15.25;63.26;101877.94;7386349;19;20022;-65
2022/07/14 04:31:24;;;;;;;11.57;2.30;;;;;;;15.25;63.18;101875.97;7385600;19;20369;-64
2022/07/14 04:33:52;;;;;;;9.57;2.53;;;;;;;15.24;62.95;101879.94;7384601;19;20027;-64
2022/07/14 04:36:21;;;;;;;13.15;3.75;;;;;;;15.16;63.77;101880.88;7382221;19;20106;-64
2022/07/14 04:38:49;;;;;;;11.32;2.53;;;;;;;15.11;63.70;101883.88;7388091;19;20014;-65
2022/07/14 04:41:18;;;;;;;12.02;2.75;;;;;;;15.10;63.37;101879.47;7385034;19;20007;-65
2022/07/14 04:43:46;;;;;;;17.35;4.40;;;;;;;15.05;63.92;101885.28;7386814;19;20517;-65
2022/07/14 04:46:13;;;;;;;11.70;2.28;;;;;;;15.01;64.29;101883.53;7384729;19;20014;-64
2022/07/14 04:54:21;;;;;;;12.30;2.55;;;;;;;14.83;64.14;101885.69;7383312;19;20021;-64
2022/07/14 04:57:09;;;;;;;8.10;2.80;;;;;;;14.79;64.43;101890.34;7385543;19;20472;-64
2022/07/14 04:59:42;;;;;;;8.50;2.42;;;;;;;14.82;64.58;101886.88;7384453;19;20021;-63
2022/07/14 05:02:09;;;;;;;10.82;2.58;;;;;;;14.85;64.63;101886.16;7385164;19;20023;-64
2022/07/14 05:04:38;;;;;;;9.55;2.42;;;;;;;14.80;64.66;101889.19;7383075;19;20086;-64
2022/07/14 05:07:07;;;;;;;10.75;2.75;;;;;;;14.80;64.84;101886.38;7383204;19;20023;-64
2022/07/14 05:09:38;;;;;;;14.23;3.38;;;;;;;14.83;64.58;101890.47;7383465;19;20021;-64
2022/07/14 05:12:09;;;;;;;7.78;2.33;;;;;;;14.77;65.17;101892.69;7385136;19;20745;-64
2022/07/14 05:14:38;;;;;;;9.57;2.05;;;;;;;14.76;65.47;101888.25;7382697;19;20006;-64
2022/07/14 05:17:06;;;;;;;11.23;3.00;;;;;;;14.78;65.06;101890.69;7384061;19;20034;-65
2022/07/14 05:19:51;;;;;;;14.70;4.53;;;;;;;14.73;65.75;101888.13;7386449;19;20398;-65
2022/07/14 05:22:19;;;;;;;9.32;2.72;;;;;;;14.72;65.69;101892.09;7383467;19;20110;-64
2022/07/14 05:24:47;;;;;;;9.93;3.28;;;;;;;14.76;65.49;101896.63;7384579;19;20014;-64
2022/07/14 05:27:18;;;;;;;11.23;2.75;;;;;;;14.75;65.89;101900.56;7384129;19;20037;-64
2022/07/14 05:29:46;;;;;;;13.77;2.92;;;;;;;14.79;65.85;101900.69;7384116;19;20699;-64
2022/07/14 05:32:15;;;;;;;12.30;3.72;;;;;;;14.83;65.94;101904.41;7381264;19;20372;-64
2022/07/14 05:34:44;;;;;;;9.38;2.28;;;;;;;14.87;66.03;101911.75;7384286;19;20018;-64
2022/07/14 05:37:15;;;;;;;12.70;2.28;;;;;;;14.83;66.25;101905.22;7383450;19;20010;-63
2022/07/14 05:39:43;;;;;;;23.70;3.35;;;;;;;14.84;66.29;101911.63;7385077;19;20627;-64
2022/07/14 05:42:11;;;;;;;11.45;3.70;;;;;;;14.88;66.18;101912.56;7386385;19;20018;-63
2022/07/14 05:44:39;;;;;;;8.80;2.45;;;;;;;14.86;66.17;101921.25;7383000;19;20018;-65
2022/07/14 05:47:07;;;;;;;12.70;2.30;;;;;;;14.85;66.25;101914.03;7389105;19;20018;-63
2022/07/14 05:49:38;;;;;;;8.63;3.00;;;;;;;14.90;66.61;101919.44;7391175;19;20106;-65
2022/07/14 05:52:06;;;;;;;15.18;3.28;;;;;;;14.90;66.52;101916.63;7392376;19;20013;-64
2022/07/14 05:54:34;;;;;;;7.05;1.88;;;;;;;14.95;66.64;101919.19;7392574;19;20102;-64
2022/07/14 05:57:03;;;;;;;8.10;2.40;;;;;;;14.93;66.95;101920.72;7391646;19;20018;-64
2022/07/14 05:59:31;;;;;;;9.90;2.63;;;;;;;14.88;67.26;101918.16;7393553;19;20010;-64
2022/07/14 06:02:12;;;;;;;7.47;2.20;;;;;;;14.87;67.20;101922.09;7391776;19;20031;-64
2022/07/14 06:04:41;;;;;;;9.20;2.33;;;;;;;14.97;67.04;101928.03;7389395;19;20038;-64
2022/07/14 06:07:09;;;;;;;12.15;2.20;;;;;;;14.95;66.90;101930.34;7391045;19;20349;-64
2022/07/14 06:09:40;;;;;;;7.50;2.22;;;;;;;15.01;66.82;101931.72;7388975;19;20019;-64
2022/07/14 06:12:10;;;;;;;12.20;2.20;;;;;;;15.07;66.89;101929.53;7389442;19;20074;-65
2022/07/14 06:14:40;;;;;;;10.15;1.88;;;;;;;15.12;67.00;101935.72;7391523;19;20018;-64
2022/07/14 06:17:10;;;;;;;10.80;2.58;;;;;;;15.17;66.74;101937.44;7389551;19;20018;-64
2022/07/14 06:19:39;;;;;;;12.07;2.70;;;;;;;15.18;66.37;101941.88;7390299;19;20018;-64
2022/07/14 06:22:08;;;;;;;4.93;1.50;;;;;;;15.24;66.33;101932.94;7390712;19;20015;-64
2022/07/14 06:24:38;;;;;;;4.35;1.98;;;;;;;15.22;66.36;101924.09;7389794;19;20021;-64
2022/07/14 06:27:14;;;;;;;9.68;2.00;;;;;;;15.27;66.33;101918.28;7390896;19;20030;-64
2022/07/14 06:29:41;;;;;;;12.77;2.60;;;;;;;15.30;66.68;101919.59;7388613;19;20018;-65
2022/07/14 06:32:09;;;;;;;9.02;2.53;;;;;;;15.33;66.23;101918.06;7390287;19;20010;-65
2022/07/14 06:34:38;;;;;;;12.82;2.45;;;;;;;15.37;66.34;101916.19;7391027;19;20045;-63
2022/07/14 06:37:16;;;;;;;13.25;2.58;;;;;;;15.43;66.28;101918.41;7389307;19;20227;-64
2022/07/14 06:39:44;;;;;;;10.57;2.35;;;;;;;15.45;66.13;101920.84;7388431;19;20480;-64
2022/07/14 06:42:13;;;;;;;8.02;2.47;;;;;;;15.39;66.21;101922.22;7391432;19;20307;-64
2022/07/14 06:44:50;;;;;;;9.68;1.83;;;;;;;15.48;66.13;101921.00;7389948;19;20102;-64
2022/07/14 06:47:18;;;;;;;6.03;2.17;;;;;;;15.55;65.80;101920.41;7389884;19;20483;-64
2022/07/14 06:49:45;;;;;;;11.80;2.90;;;;;;;15.62;65.78;101909.47;7388610;19;20014;-64
2022/07/14 06:52:15;;;;;;;11.88;2.25;;;;;;;15.59;65.99;101927.75;7386936;19;20022;-64
2022/07/14 06:54:42;;;;;;;10.05;2.20;;;;;;;15.66;65.43;101927.13;7386835;19;20055;-64
2022/07/14 06:57:10;;;;;;;17.08;2.85;;;;;;;15.71;65.22;101918.50;7386961;19;20034;-65
2022/07/14 06:59:37;;;;;;;16.25;2.78;;;;;;;15.76;65.31;101926.66;7389899;19;20022;-63
2022/07/14 07:02:05;;;;;;;13.60;2.90;;;;;;;15.83;65.04;101926.88;7390885;19;20018;-64
2022/07/14 07:04:33;;;;;;;7.90;2.47;;;;;;;15.92;65.31;101929.53;7390946;19;20014;-64
2022/07/14 07:07:00;;;;;;;16.90;3.00;;;;;;;15.98;64.98;101917.75;7390479;19;20021;-63
2022/07/14 07:09:28;;;;;;;15.73;3.75;;;;;;;16.05;65.12;101929.16;7390001;19;20018;-64
2022/07/14 07:11:56;;;;;;;11.73;3.20;;;;;;;16.15;64.92;101927.84;7383853;19;20078;-64
2022/07/14 07:14:23;;;;;;;10.20;1.80;;;;;;;16.29;65.21;101928.25;7385601;19;20082;-65
2022/07/14 07:16:51;;;;;;;10.40;2.15;;;;;;;16.46;64.70;101941.94;7388283;19;20014;-65
2022/07/14 07:19:19;;;;;;;6.85;1.88;;;;;;;16.54;64.58;101940.19;7390609;19;20019;-62
2022/07/14 07:21:49;;;;;;;13.88;3.13;;;;;;;16.63;64.35;101936.03;7392219;19;20019;-65
2022/07/14 07:24:18;;;;;;;10.82;3.05;;;;;;;16.72;64.25;101931.09;7392506;19;20382;-63
2022/07/14 07:26:45;;;;;;;7.72;1.88;;;;;;;16.77;64.20;101932.81;7392487;19;20018;-64
2022/07/14 07:29:13;;;;;;;10.73;2.67;;;;;;;16.86;63.69;101939.91;7389831;19;20023;-65
2022/07/14 07:31:40;;;;;;;6.22;1.42;;;;;;;16.93;63.94;101942.06;7390833;19;20393;-64
2022/07/14 07:34:09;;;;;;;5.18;1.83;;;;;;;17.03;63.77;101939.53;7389708;19;20495;-63
2022/07/14 07:36:37;;;;;;;6.40;1.73;;;;;;;17.16;63.86;101950.63;7387464;19;20018;-62
2022/07/14 07:39:19;;;;;;;5.43;1.42;;;;;;;17.22;64.05;101950.00;7390717;19;20019;-63
2022/07/14 07:41:47;;;;;;;8.30;1.67;;;;;;;17.36;64.08;101952.38;7391628;19;20467;-61
2022/07/14 07:44:14;;;;;;;5.55;1.48;;;;;;;17.57;64.64;101955.72;7388559;19;20018;-62
2022/07/14 07:46:42;;;;;;;6.07;1.55;;;;;;;17.77;64.15;101953.78;7389549;19;20484;-62
2022/07/14 07:49:10;;;;;;;3.33;1.00;;;;;;;18.06;64.01;101968.06;7391674;19;20067;-62
2022/07/14 07:51:38;;;;;;;4.63;1.40;;;;;;;18.39;63.79;101953.56;7392833;19;20018;-62
2022/07/14 07:54:06;;;;;;;6.03;1.33;;;;;;;18.70;63.32;101956.22;7393022;19;20357;-62
2022/07/14 07:56:34;;;;;;;5.70;1.15;;;;;;;19.04;62.23;101956.44;7390208;19;20029;-61
2022/07/14 07:59:02;;;;;;;6.90;1.33;;;;;;;19.34;60.51;101954.59;7391916;19;20022;-63
2022/07/14 08:01:30;;;;;;;8.43;1.42;;;;;;;19.79;59.19;101960.16;7388358;19;20355;-65
2022/07/14 08:03:57;;;;;;;9.35;1.52;;;;;;;20.36;57.44;101950.53;7390707;19;20011;-63
2022/07/14 08:06:25;;;;;;;4.47;1.50;;;;;;;20.76;55.88;101955.44;7388286;19;20443;-63
2022/07/14 08:09:10;;;;;;;4.03;1.10;;;;;;;21.06;54.31;101956.19;7388416;19;20468;-64
2022/07/14 08:11:40;;;;;;;10.35;1.00;;;;;;;21.63;53.34;101949.03;7365694;19;20017;-65
2022/07/14 08:16:56;;;;;;;6.32;1.00;;;;;;;21.92;50.88;101958.53;7373735;19;20014;-64
2022/07/14 08:19:24;;;;;;;5.13;0.98;;;;;;;21.79;50.10;101960.81;7379139;19;20476;-63
2022/07/14 08:21:52;;;;;;;6.85;0.80;;;;;;;22.10;49.85;101952.97;7375482;19;20048;-63
2022/07/14 08:24:20;;;;;;;9.38;1.00;;;;;;;22.16;49.03;101957.06;7376028;19;20034;-61
2022/07/14 08:26:47;;;;;;;5.57;1.25;;;;;;;22.20;48.47;101961.50;7382255;19;20022;-65
2022/07/14 08:29:16;;;;;;;6.15;1.48;;;;;;;22.49;47.64;101942.69;7390656;19;20022;-63
2022/07/14 08:31:45;;;;;;;8.20;1.17;;;;;;;22.74;47.41;101949.22;7388761;19;20014;-64
2022/07/14 08:34:13;;;;;;;6.10;1.42;;;;;;;23.00;47.22;101963.03;7386168;19;20018;-64
2022/07/14 08:36:41;;;;;;;3.08;1.00;;;;;;;23.09;45.90;101950.53;7387915;19;20023;-62
2022/07/14 08:39:09;;;;;;;5.30;1.30;;;;;;;22.96;45.36;101964.22;7389440;19;20007;-62
2022/07/14 08:41:37;;;;;;;5.55;1.13;;;;;;;22.73;45.69;101958.09;7391580;19;20018;-63
2022/07/14 08:44:05;;;;;;;9.57;1.33;;;;;;;22.81;45.06;101971.84;7388908;19;20003;-62
2022/07/14 08:46:33;;;;;;;1.55;0.80;;;;;;;22.64;45.00;101966.13;7387086;19;20022;-64
2022/07/14 08:49:04;;;;;;;3.53;1.05;;;;;;;22.87;44.97;101958.97;7388553;19;20145;-63
2022/07/14 08:51:33;;;;;;;2.40;1.00;;;;;;;22.86;44.66;101962.19;7389294;19;20025;-61
2022/07/14 08:54:01;;;;;;;5.47;1.00;;;;;;;23.32;44.66;101956.59;7388480;19;20021;-64
2022/07/14 08:56:30;;;;;;;10.85;1.35;;;;;;;23.86;44.55;101958.19;7385940;19;20026;-62
2022/07/14 08:58:57;;;;;;;10.00;1.20;;;;;;;23.99;44.09;101960.19;7388196;19;20437;-62
2022/07/14 09:01:26;;;;;;;3.92;1.00;;;;;;;23.75;43.31;101951.78;7387139;19;20022;-62
2022/07/14 09:03:54;;;;;;;5.07;1.25;;;;;;;23.69;43.43;101959.84;7386669;19;20037;-61
2022/07/14 09:06:52;;;;;;;5.00;1.20;;;;;;;24.12;42.72;101955.72;7387271;19;20041;-62
2022/07/14 09:09:30;;;;;;;2.45;0.95;;;;;;;24.63;41.72;101955.13;7389642;19;20018;-61
2022/07/14 09:12:07;;;;;;;4.65;1.10;;;;;;;25.14;41.25;101953.63;7389600;19;20010;-61
2022/07/14 09:17:56;;;;;;;5.22;1.13;;;;;;;25.40;39.34;101959.50;7386169;19;20022;-62
2022/07/14 09:20:28;;;;;;;3.30;0.88;;;;;;;24.74;40.56;101964.38;7387652;19;20066;-61
2022/07/14 09:22:56;;;;;;;;;;;;;;;24.26;40.45;101966.19;7401483;19;20026;-62
2022/07/14 09:25:26;;;;;;;4.80;1.05;;;;;;;23.91;40.97;101952.13;7402102;19;19919;-61
2022/07/14 09:27:54;;;;;;;5.32;0.55;;;;;;;24.01;40.87;101959.78;7403060;19;20018;-64
2022/07/14 09:30:24;;;;;;;5.97;1.42;;;;;;;24.33;40.45;101956.91;7401688;19;20014;-51
2022/07/14 09:32:57;;;;;;;3.60;0.82;;;;;;;24.74;39.94;101947.38;7400623;19;20018;-64
2022/07/14 09:35:26;;;;;;;3.00;0.85;;;;;;;25.05;39.69;101951.25;7403759;19;20026;-62
2022/07/14 09:37:55;;;;;;;3.25;1.00;;;;;;;25.44;39.50;101939.63;7399649;19;20019;-62
2022/07/14 09:40:31;;;;;;;2.53;1.08;;;;;;;25.71;38.70;101943.44;7401378;19;20033;-63
2022/07/14 09:43:04;;;;;;;4.03;1.45;;;;;;;25.33;38.68;101947.41;7402052;19;20022;-62
2022/07/14 09:45:39;;;;;;;3.92;0.85;;;;;;;24.97;37.50;101946.84;7402538;19;20019;-63
2022/07/14 09:48:13;;;;;;;2.88;0.93;;;;;;;24.64;39.14;101947.44;7400731;19;20026;-63
2022/07/14 09:50:42;;;;;;;2.72;1.00;;;;;;;24.66;39.07;101945.81;7403034;19;20029;-62
2022/07/14 09:53:14;;;;;;;2.85;0.80;;;;;;;24.60;39.34;101964.44;7397737;19;20527;-63
2022/07/14 09:55:48;;;;;;;4.85;0.90;;;;;;;24.71;38.98;101950.22;7400676;19;20022;-64
2022/07/14 09:58:15;;;;;;;5.40;1.10;;;;;;;24.35;39.11;101957.28;7400530;19;20018;-63
2022/07/14 10:00:54;;;;;;;4.63;1.00;;;;;;;23.80;39.48;101948.53;7399668;19;20007;-62
2022/07/14 10:03:23;;;;;;;4.45;0.80;;;;;;;23.40;39.79;101959.06;7399375;19;20536;-63
2022/07/14 10:05:54;;;;;;;4.72;1.02;;;;;;;23.59;40.04;101958.63;7399446;19;20019;-63
2022/07/14 10:08:46;;;;;;;3.97;0.75;;;;;;;24.06;39.85;101967.88;7398689;19;20030;-63
2022/07/14 10:11:13;;;;;;;3.67;0.70;;;;;;;23.75;39.87;101960.25;7399899;19;20498;-61
2022/07/14 10:13:42;;;;;;;3.55;1.08;;;;;;;23.42;40.75;101965.13;7400810;19;20015;-63
2022/07/14 10:16:11;;;;;;;4.85;1.50;;;;;;;23.48;40.61;101960.66;7401119;19;20333;-63
2022/07/14 10:18:42;;;;;;;4.00;1.10;;;;;;;23.44;40.94;101962.69;7400718;19;20665;-63
2022/07/14 10:21:10;;;;;;;3.47;0.80;;;;;;;23.37;40.91;101965.53;7399622;19;20484;-63
2022/07/14 10:23:38;;;;;;;6.22;1.58;;;;;;;23.30;40.82;101968.28;7399377;19;20018;-63
2022/07/14 10:26:08;;;;;;;4.43;0.80;;;;;;;23.03;40.91;101976.31;7401254;19;20041;-62
2022/07/14 10:28:41;;;;;;;5.05;1.67;;;;;;;22.74;41.49;101983.09;7402803;19;20018;-62
2022/07/14 10:31:32;;;;;;;3.28;0.75;;;;;;;22.77;41.87;101978.72;7401287;19;20052;-62
2022/07/14 10:34:32;;;;;;;2.95;1.20;;;;;;;22.94;42.08;101980.75;7391232;19;20010;-62
2022/07/14 10:37:19;;;;;;;3.17;1.23;;;;;;;23.42;41.34;101979.25;7390367;19;20022;-63
2022/07/14 10:40:03;;;;;;;3.65;0.57;;;;;;;23.59;41.02;101984.06;7392832;19;20019;-63
2022/07/14 10:42:56;;;;;;;3.50;0.90;;;;;;;23.74;40.32;101984.88;7393101;19;20011;-63
2022/07/14 10:45:26;;;;;;;3.88;0.90;;;;;;;23.56;40.98;101979.22;7394823;19;20007;-63
2022/07/14 10:47:53;;;;;;;6.65;4.82;;;;;;;23.15;40.98;101980.78;7389011;19;20648;-63
2022/07/14 10:50:23;;;;;;;2.00;0.90;;;;;;;22.79;40.76;101990.41;7393925;19;20487;-63
2022/07/14 10:52:54;;;;;;;2.13;0.95;;;;;;;22.73;41.25;101980.69;7389806;19;20380;-63
2022/07/14 10:55:29;;;;;;;5.45;0.90;;;;;;;22.96;40.36;101979.16;7394307;19;20015;-62
2022/07/14 10:57:59;;;;;;;3.42;1.10;;;;;;;22.73;40.59;101973.03;7389526;19;20022;-63
2022/07/14 11:00:43;;;;;;;2.72;1.27;;;;;;;22.56;40.52;101989.91;7393513;19;20026;-63
2022/07/14 11:03:21;;;;;;;2.08;0.50;;;;;;;22.31;41.16;101987.75;7392312;19;20010;-61
2022/07/14 11:06:01;;;;;;;2.17;0.98;;;;;;;22.18;41.83;101988.50;7392360;19;20010;-62
2022/07/14 11:09:33;;;;;;;2.53;0.73;;;;;;;22.12;41.52;101978.78;7393186;19;20015;-62
2022/07/14 11:12:08;;;;;;;2.33;0.60;;;;;;;22.52;41.43;101981.41;7392162;19;20003;-58
2022/07/14 11:14:41;;;;;;;3.58;0.80;;;;;;;22.78;41.10;101978.31;7388840;19;20018;-62
2022/07/14 11:17:35;;;;;;;0.98;0.40;;;;;;;22.70;41.54;101976.66;7391836;19;20019;-59
2022/07/14 11:20:08;;;;;;;2.28;0.50;;;;;;;22.62;41.85;101974.16;7390203;19;20496;-59
2022/07/14 11:22:37;;;;;;;6.78;1.42;;;;;;;22.57;41.53;101978.19;7387968;19;20025;-58
2022/07/14 11:25:06;;;;;;;3.72;1.17;;;;;;;22.45;41.82;101978.56;7391753;19;20019;-55
2022/07/14 11:27:38;;;;;;;2.63;0.70;;;;;;;22.30;42.02;101985.31;7391911;19;20480;-60
2022/07/14 11:30:27;;;;;;;3.85;1.15;;;;;;;22.13;42.37;101986.06;7392583;19;20011;-59
2022/07/14 11:33:10;;;;;;;1.10;0.60;;;;;;;22.19;42.22;101988.09;7390445;19;20022;-60
2022/07/14 11:38:33;;;;;;;7.13;1.77;;;;;;;22.54;41.63;101989.47;7390686;19;20023;-58
2022/07/14 11:41:02;;;;;;;1.85;0.90;;;;;;;22.48;42.18;101985.44;7392898;19;20438;-58
2022/07/14 11:43:30;;;;;;;1.75;0.70;;;;;;;22.47;42.36;101997.91;7392188;19;20030;-61
2022/07/14 11:46:09;;;;;;;0.65;0.50;;;;;;;22.39;41.87;101982.97;7391200;19;20521;-59
2022/07/14 11:48:42;;;;;;;2.38;0.60;;;;;;;22.36;42.29;101987.38;7389756;19;20507;-59
2022/07/14 11:51:20;;;;;;;2.03;0.60;;;;;;;22.23;42.69;101990.94;7390832;19;20010;-59
2022/07/14 11:54:04;;;;;;;2.72;1.50;;;;;;;22.20;41.84;101986.91;7391414;19;20041;-61
2022/07/14 11:56:31;;;;;;;4.68;1.48;;;;;;;22.28;42.10;101994.19;7390381;19;20078;-59